sensor_id;sensor_type;location;lat;lon;timestamp;pressure;altitude;pressure_sealevel;temperature;humidity
40930;BME280;26659;47.962;21.652;2022-07-12T00:00:33;100582.38;;;11.15;100.00
40930;BME280;26659;47.962;21.652;2022-07-12T00:02:58;100566.84;;;11.25;100.00
40930;BME280;26659;47.962;21.652;2022-07-12T00:05:24;100572.66;;;11.28;100.00
40930;BME280;26659;47.962;21.652;2022-07-12T00:07:49;100577.78;;;11.45;100.00
40930;BME280;26659;47.962;21.652;2022-07-12T00:10:14;100572.94;;;11.55;100.00
40930;BME280;26659;47.962;21.652;2022-07-12T00:12:40;100578.09;;;11.56;100.00
40930;BME280;26659;47.962;21.652;2022-07-12T00:15:05;100575.41;;;11.56;100.00
40930;BME280;26659;47.962;21.652;2022-07-12T00:17:31;100580.53;;;11.51;100.00
40930;BME280;26659;47.962;21.652;2022-07-12T00:19:56;100583.81;;;11.53;100.00
40930;BME280;26659;47.962;21.652;2022-07-12T00:22:21;100579.66;;;11.51;100.00
40930;BME280;26659;47.962;21.652;2022-07-12T00:24:47;100584.28;;;11.57;100.00
40930;BME280;26659;47.962;21.652;2022-07-12T00:27:13;100572.06;;;11.54;100.00
40930;BME280;26659;47.962;21.652;2022-07-12T00:29:38;100578.16;;;11.42;100.00
40930;BME280;26659;47.962;21.652;2022-07-12T00:32:03;100578.47;;;11.32;100.00
40930;BME280;26659;47.962;21.652;2022-07-12T00:34:29;100578.28;;;11.33;100.00
40930;BME280;26659;47.962;21.652;2022-07-12T00:36:54;100581.84;;;11.19;100.00
40930;BME280;26659;47.962;21.652;2022-07-12T00:39:19;100576.72;;;11.24;100.00
40930;BME280;26659;47.962;21.652;2022-07-12T00:41:47;100578.38;;;11.25;100.00
40930;BME280;26659;47.962;21.652;2022-07-12T00:44:13;100578.47;;;11.32;100.00
40930;BME280;26659;47.962;21.652;2022-07-12T00:46:38;100588.75;;;11.50;100.00
40930;BME280;26659;47.962;21.652;2022-07-12T00:49:04;100579.06;;;11.49;100.00
40930;BME280;26659;47.962;21.652;2022-07-12T00:51:29;100580.78;;;11.56;100.00
40930;BME280;26659;47.962;21.652;2022-07-12T00:53:56;100581.13;;;11.32;100.00
40930;BME280;26659;47.962;21.652;2022-07-12T00:56:22;100575.28;;;11.43;100.00
40930;BME280;26659;47.962;21.652;2022-07-12T00:58:48;100577.41;;;11.48;100.00
40930;BME280;26659;47.962;21.652;2022-07-12T01:01:13;100579.94;;;11.56;100.00
40930;BME280;26659;47.962;21.652;2022-07-12T01:03:38;100581.53;;;11.50;100.00
40930;BME280;26659;47.962;21.652;2022-07-12T01:06:04;100569.81;;;11.51;100.00
40930;BME280;26659;47.962;21.652;2022-07-12T01:08:30;100566.16;;;11.59;100.00
40930;BME280;26659;47.962;21.652;2022-07-12T01:10:55;100577.41;;;11.48;100.00
40930;BME280;26659;47.962;21.652;2022-07-12T01:13:21;100578.59;;;11.24;100.00
40930;BME280;26659;47.962;21.652;2022-07-12T01:15:47;100588.19;;;11.18;100.00
40930;BME280;26659;47.962;21.652;2022-07-12T01:18:13;100577.56;;;11.25;100.00
40930;BME280;26659;47.962;21.652;2022-07-12T01:20:38;100581.84;;;11.19;100.00
40930;BME280;26659;47.962;21.652;2022-07-12T01:23:04;100586.63;;;11.24;100.00
40930;BME280;26659;47.962;21.652;2022-07-12T01:25:29;100581.34;;;11.30;100.00
40930;BME280;26659;47.962;21.652;2022-07-12T01:27:55;100577.84;;;11.30;100.00
40930;BME280;26659;47.962;21.652;2022-07-12T01:30:20;100577.19;;;11.28;100.00
40930;BME280;26659;47.962;21.652;2022-07-12T01:32:46;100577.91;;;11.37;100.00
40930;BME280;26659;47.962;21.652;2022-07-12T01:35:11;100580.31;;;11.53;100.00
40930;BME280;26659;47.962;21.652;2022-07-12T01:37:37;100575.19;;;11.58;100.00
40930;BME280;26659;47.962;21.652;2022-07-12T01:40:04;100564.09;;;11.61;100.00
40930;BME280;26659;47.962;21.652;2022-07-12T01:42:30;100565.34;;;11.59;100.00
40930;BME280;26659;47.962;21.652;2022-07-12T01:44:56;100557.41;;;11.50;100.00
40930;BME280;26659;47.962;21.652;2022-07-12T01:47:22;100556.94;;;11.40;100.00
40930;BME280;26659;47.962;21.652;2022-07-12T01:49:48;100552.84;;;11.44;100.00
40930;BME280;26659;47.962;21.652;2022-07-12T01:52:14;100560.38;;;11.55;100.00
40930;BME280;26659;47.962;21.652;2022-07-12T01:54:40;100550.41;;;11.49;100.00
40930;BME280;26659;47.962;21.652;2022-07-12T01:57:05;100563.03;;;11.55;100.00
40930;BME280;26659;47.962;21.652;2022-07-12T01:59:31;100564.56;;;11.43;100.00
40930;BME280;26659;47.962;21.652;2022-07-12T02:01:57;100566.47;;;11.49;100.00
40930;BME280;26659;47.962;21.652;2022-07-12T02:04:22;100554.56;;;11.52;100.00
40930;BME280;26659;47.962;21.652;2022-07-12T02:06:48;100551.75;;;11.60;100.00
40930;BME280;26659;47.962;21.652;2022-07-12T02:09:14;100552.84;;;11.66;100.00
40930;BME280;26659;47.962;21.652;2022-07-12T02:11:39;100559.91;;;11.73;100.00
40930;BME280;26659;47.962;21.652;2022-07-12T02:14:05;100563.78;;;11.71;100.00
40930;BME280;26659;47.962;21.652;2022-07-12T02:16:30;100562.38;;;11.75;100.00
40930;BME280;26659;47.962;21.652;2022-07-12T02:18:56;100563.88;;;11.56;100.00
40930;BME280;26659;47.962;21.652;2022-07-12T02:21:22;100560.44;;;11.41;100.00
40930;BME280;26659;47.962;21.652;2022-07-12T02:23:47;100561.94;;;11.50;100.00
40930;BME280;26659;47.962;21.652;2022-07-12T02:26:12;100555.50;;;11.66;100.00
40930;BME280;26659;47.962;21.652;2022-07-12T02:28:38;100564.22;;;11.74;100.00
40930;BME280;26659;47.962;21.652;2022-07-12T02:31:03;100560.53;;;11.54;100.00
40930;BME280;26659;47.962;21.652;2022-07-12T02:33:28;100561.56;;;11.31;100.00
40930;BME280;26659;47.962;21.652;2022-07-12T02:35:54;100557.03;;;11.32;100.00
40930;BME280;26659;47.962;21.652;2022-07-12T02:38:19;100564.75;;;11.42;100.00
40930;BME280;26659;47.962;21.652;2022-07-12T02:40:46;100569.66;;;11.17;100.00
40930;BME280;26659;47.962;21.652;2022-07-12T02:45:46;100578.38;;;11.04;100.00
40930;BME280;26659;47.962;21.652;2022-07-12T02:48:11;100576.78;;;11.09;100.00
40930;BME280;26659;47.962;21.652;2022-07-12T02:50:40;100579.41;;;11.24;100.00
40930;BME280;26659;47.962;21.652;2022-07-12T02:53:06;100590.00;;;11.11;100.00
40930;BME280;26659;47.962;21.652;2022-07-12T02:55:32;100576.03;;;11.16;100.00
40930;BME280;26659;47.962;21.652;2022-07-12T02:57:57;100578.38;;;11.25;100.00
40930;BME280;26659;47.962;21.652;2022-07-12T03:00:22;100571.59;;;11.44;100.00
40930;BME280;26659;47.962;21.652;2022-07-12T03:02:48;100572.94;;;11.55;100.00
40930;BME280;26659;47.962;21.652;2022-07-12T03:05:13;100578.09;;;11.56;100.00
40930;BME280;26659;47.962;21.652;2022-07-12T03:07:38;100575.53;;;11.48;100.00
40930;BME280;26659;47.962;21.652;2022-07-12T03:10:04;100573.47;;;11.29;100.00
40930;BME280;26659;47.962;21.652;2022-07-12T03:12:29;100578.47;;;11.32;100.00
40930;BME280;26659;47.962;21.652;2022-07-12T03:14:55;100575.28;;;11.43;100.00
40930;BME280;26659;47.962;21.652;2022-07-12T03:17:20;100583.97;;;11.45;100.00
40930;BME280;26659;47.962;21.652;2022-07-12T03:19:46;100580.09;;;11.48;100.00
40930;BME280;26659;47.962;21.652;2022-07-12T03:22:11;100584.03;;;11.52;100.00
40930;BME280;26659;47.962;21.652;2022-07-12T03:24:36;100575.41;;;11.56;100.00
40930;BME280;26659;47.962;21.652;2022-07-12T03:27:02;100578.28;;;11.55;100.00
40930;BME280;26659;47.962;21.652;2022-07-12T03:29:27;100581.59;;;11.57;100.00
40930;BME280;26659;47.962;21.652;2022-07-12T03:31:52;100581.28;;;11.67;100.00
40930;BME280;26659;47.962;21.652;2022-07-12T03:34:17;100577.44;;;11.76;100.00
40930;BME280;26659;47.962;21.652;2022-07-12T03:36:43;100583.69;;;11.83;100.00
40930;BME280;26659;47.962;21.652;2022-07-12T03:39:08;100575.13;;;11.94;100.00
40930;BME280;26659;47.962;21.652;2022-07-12T03:41:33;100589.84;;;11.98;100.00
40930;BME280;26659;47.962;21.652;2022-07-12T03:43:59;100589.47;;;12.08;100.00
40930;BME280;26659;47.962;21.652;2022-07-12T03:46:24;100578.56;;;12.10;100.00
40930;BME280;26659;47.962;21.652;2022-07-12T03:48:49;100582.69;;;12.12;100.00
40930;BME280;26659;47.962;21.652;2022-07-12T03:51:14;100571.78;;;12.14;100.00
40930;BME280;26659;47.962;21.652;2022-07-12T03:53:40;100579.03;;;12.20;100.00
40930;BME280;26659;47.962;21.652;2022-07-12T03:56:05;100583.78;;;12.18;100.00
40930;BME280;26659;47.962;21.652;2022-07-12T03:58:31;100588.22;;;12.04;100.00
40930;BME280;26659;47.962;21.652;2022-07-12T04:00:56;100592.88;;;12.17;100.00
40930;BME280;26659;47.962;21.652;2022-07-12T04:03:21;100587.22;;;12.12;100.00
40930;BME280;26659;47.962;21.652;2022-07-12T04:05:46;100589.38;;;12.23;100.00
40930;BME280;26659;47.962;21.652;2022-07-12T04:08:12;100590.47;;;12.28;100.00
40930;BME280;26659;47.962;21.652;2022-07-12T04:10:37;100587.63;;;12.37;100.00
40930;BME280;26659;47.962;21.652;2022-07-12T04:13:02;100586.88;;;12.49;100.00
40930;BME280;26659;47.962;21.652;2022-07-12T04:15:29;100588.59;;;12.64;100.00
40930;BME280;26659;47.962;21.652;2022-07-12T04:17:54;100586.09;;;12.62;100.00
40930;BME280;26659;47.962;21.652;2022-07-12T04:20:19;100581.84;;;12.74;100.00
40930;BME280;26659;47.962;21.652;2022-07-12T04:22:45;100591.59;;;12.82;100.00
40930;BME280;26659;47.962;21.652;2022-07-12T04:25:10;100598.25;;;12.93;100.00
40930;BME280;26659;47.962;21.652;2022-07-12T04:27:35;100596.81;;;12.97;100.00
40930;BME280;26659;47.962;21.652;2022-07-12T04:30:02;100594.38;;;13.09;100.00
40930;BME280;26659;47.962;21.652;2022-07-12T04:32:27;100594.75;;;13.06;100.00
40930;BME280;26659;47.962;21.652;2022-07-12T04:34:52;100601.00;;;13.13;100.00
40930;BME280;26659;47.962;21.652;2022-07-12T04:37:17;100597.84;;;13.02;100.00
40930;BME280;26659;47.962;21.652;2022-07-12T04:39:43;100606.53;;;13.05;100.00
40930;BME280;26659;47.962;21.652;2022-07-12T04:42:08;100600.03;;;13.27;100.00
40930;BME280;26659;47.962;21.652;2022-07-12T04:44:34;100602.53;;;13.35;100.00
40930;BME280;26659;47.962;21.652;2022-07-12T04:46:59;100604.59;;;13.33;100.00
40930;BME280;26659;47.962;21.652;2022-07-12T04:49:24;100594.06;;;13.45;100.00
40930;BME280;26659;47.962;21.652;2022-07-12T04:51:49;100587.69;;;13.53;100.00
40930;BME280;26659;47.962;21.652;2022-07-12T04:54:15;100591.59;;;13.50;100.00
40930;BME280;26659;47.962;21.652;2022-07-12T04:56:40;100591.00;;;13.61;100.00
40930;BME280;26659;47.962;21.652;2022-07-12T04:59:06;100596.38;;;13.61;100.00
40930;BME280;26659;47.962;21.652;2022-07-12T05:01:31;100601.75;;;13.55;100.00
40930;BME280;26659;47.962;21.652;2022-07-12T05:03:57;100597.41;;;13.67;100.00
40930;BME280;26659;47.962;21.652;2022-07-12T05:06:23;100593.91;;;13.73;100.00
40930;BME280;26659;47.962;21.652;2022-07-12T05:08:48;100597.63;;;13.79;100.00
40930;BME280;26659;47.962;21.652;2022-07-12T05:11:13;100593.06;;;13.79;100.00
40930;BME280;26659;47.962;21.652;2022-07-12T05:13:39;100593.50;;;13.83;100.00
40930;BME280;26659;47.962;21.652;2022-07-12T05:16:05;100604.84;;;13.65;100.00
40930;BME280;26659;47.962;21.652;2022-07-12T05:18:31;100607.31;;;13.46;100.00
40930;BME280;26659;47.962;21.652;2022-07-12T05:20:56;100604.06;;;13.78;100.00
40930;BME280;26659;47.962;21.652;2022-07-12T05:23:22;100603.63;;;14.07;100.00
40930;BME280;26659;47.962;21.652;2022-07-12T05:25:47;100612.94;;;14.31;100.00
40930;BME280;26659;47.962;21.652;2022-07-12T05:28:15;100608.75;;;14.49;100.00
40930;BME280;26659;47.962;21.652;2022-07-12T05:30:41;100605.88;;;14.57;100.00
40930;BME280;26659;47.962;21.652;2022-07-12T05:33:07;100601.28;;;14.71;100.00
40930;BME280;26659;47.962;21.652;2022-07-12T05:35:32;100605.06;;;14.56;100.00
40930;BME280;26659;47.962;21.652;2022-07-12T05:37:57;100602.06;;;14.78;100.00
40930;BME280;26659;47.962;21.652;2022-07-12T05:40:23;100610.50;;;15.01;100.00
40930;BME280;26659;47.962;21.652;2022-07-12T05:42:48;100618.72;;;15.13;100.00
40930;BME280;26659;47.962;21.652;2022-07-12T05:45:14;100610.31;;;14.96;100.00
40930;BME280;26659;47.962;21.652;2022-07-12T05:47:39;100611.69;;;15.12;100.00
40930;BME280;26659;47.962;21.652;2022-07-12T05:50:05;100610.72;;;15.00;100.00
40930;BME280;26659;47.962;21.652;2022-07-12T05:52:30;100604.16;;;15.21;100.00
40930;BME280;26659;47.962;21.652;2022-07-12T05:55:14;100604.63;;;16.12;100.00
40930;BME280;26659;47.962;21.652;2022-07-12T05:57:40;100611.13;;;17.64;100.00
40930;BME280;26659;47.962;21.652;2022-07-12T06:00:05;100604.56;;;18.48;99.79
40930;BME280;26659;47.962;21.652;2022-07-12T06:02:31;100611.66;;;19.30;92.01
40930;BME280;26659;47.962;21.652;2022-07-12T06:04:56;100617.09;;;19.59;90.92
40930;BME280;26659;47.962;21.652;2022-07-12T06:07:21;100614.00;;;20.17;84.52
40930;BME280;26659;47.962;21.652;2022-07-12T06:09:47;100617.03;;;20.77;80.78
40930;BME280;26659;47.962;21.652;2022-07-12T06:12:12;100626.03;;;21.21;78.03
40930;BME280;26659;47.962;21.652;2022-07-12T06:14:37;100622.50;;;21.43;76.89
40930;BME280;26659;47.962;21.652;2022-07-12T06:17:03;100621.69;;;21.74;74.40
40930;BME280;26659;47.962;21.652;2022-07-12T06:19:28;100627.31;;;21.90;72.65
40930;BME280;26659;47.962;21.652;2022-07-12T06:21:53;100625.50;;;22.05;70.02
40930;BME280;26659;47.962;21.652;2022-07-12T06:24:19;100624.63;;;22.00;68.83
40930;BME280;26659;47.962;21.652;2022-07-12T06:26:44;100619.66;;;21.86;68.88
40930;BME280;26659;47.962;21.652;2022-07-12T06:29:09;100622.13;;;22.63;66.92
40930;BME280;26659;47.962;21.652;2022-07-12T06:31:35;100621.97;;;24.09;60.84
40930;BME280;26659;47.962;21.652;2022-07-12T06:34:00;100621.63;;;23.39;60.42
40930;BME280;26659;47.962;21.652;2022-07-12T06:36:25;100622.81;;;23.78;59.10
40930;BME280;26659;47.962;21.652;2022-07-12T06:38:51;100611.13;;;23.05;60.15
40930;BME280;26659;47.962;21.652;2022-07-12T06:41:16;100616.22;;;23.69;58.89
40930;BME280;26659;47.962;21.652;2022-07-12T06:43:42;100621.97;;;23.73;59.32
40930;BME280;26659;47.962;21.652;2022-07-12T06:46:07;100618.63;;;23.55;57.37
40930;BME280;26659;47.962;21.652;2022-07-12T06:48:32;100615.13;;;24.06;57.96
40930;BME280;26659;47.962;21.652;2022-07-12T06:50:58;100615.06;;;24.57;56.35
40930;BME280;26659;47.962;21.652;2022-07-12T06:53:23;100621.28;;;23.10;57.60
40930;BME280;26659;47.962;21.652;2022-07-12T06:55:48;100612.91;;;21.94;63.46
40930;BME280;26659;47.962;21.652;2022-07-12T06:58:14;100611.09;;;21.24;67.54
40930;BME280;26659;47.962;21.652;2022-07-12T07:00:39;100620.47;;;21.11;67.69
40930;BME280;26659;47.962;21.652;2022-07-12T07:03:07;100615.53;;;20.47;68.73
40930;BME280;26659;47.962;21.652;2022-07-12T07:05:33;100612.19;;;20.57;70.62
40930;BME280;26659;47.962;21.652;2022-07-12T07:07:59;100611.13;;;20.07;69.87
40930;BME280;26659;47.962;21.652;2022-07-12T07:10:24;100618.00;;;19.64;69.69
40930;BME280;26659;47.962;21.652;2022-07-12T07:12:49;100612.28;;;20.11;71.56
40930;BME280;26659;47.962;21.652;2022-07-12T07:15:15;100618.41;;;20.74;70.08
40930;BME280;26659;47.962;21.652;2022-07-12T07:17:41;100620.59;;;20.38;70.44
40930;BME280;26659;47.962;21.652;2022-07-12T07:20:08;100620.91;;;20.25;70.48
40930;BME280;26659;47.962;21.652;2022-07-12T07:22:33;100624.88;;;20.01;70.61
40930;BME280;26659;47.962;21.652;2022-07-12T07:24:59;100623.91;;;19.90;70.76
40930;BME280;26659;47.962;21.652;2022-07-12T07:27:24;100622.31;;;19.48;68.15
40930;BME280;26659;47.962;21.652;2022-07-12T07:29:49;100629.25;;;19.28;72.43
40930;BME280;26659;47.962;21.652;2022-07-12T07:32:33;100633.34;;;19.70;71.39
40930;BME280;26659;47.962;21.652;2022-07-12T07:34:58;100638.75;;;19.42;70.24
40930;BME280;26659;47.962;21.652;2022-07-12T07:37:23;100634.91;;;18.62;75.78
40930;BME280;26659;47.962;21.652;2022-07-12T07:39:49;100643.78;;;19.21;74.73
40930;BME280;26659;47.962;21.652;2022-07-12T07:42:14;100633.13;;;18.91;76.62
40930;BME280;26659;47.962;21.652;2022-07-12T07:44:39;100635.19;;;19.24;74.03
40930;BME280;26659;47.962;21.652;2022-07-12T07:47:05;100631.19;;;19.44;75.12
40930;BME280;26659;47.962;21.652;2022-07-12T07:49:30;100632.63;;;19.46;72.81
40930;BME280;26659;47.962;21.652;2022-07-12T07:51:55;100637.09;;;19.41;71.24
40930;BME280;26659;47.962;21.652;2022-07-12T07:54:21;100634.09;;;19.54;73.14
40930;BME280;26659;47.962;21.652;2022-07-12T07:56:46;100635.88;;;19.48;72.70
40930;BME280;26659;47.962;21.652;2022-07-12T07:59:11;100639.13;;;19.34;71.59
40930;BME280;26659;47.962;21.652;2022-07-12T08:01:37;100639.13;;;19.34;73.42
40930;BME280;26659;47.962;21.652;2022-07-12T08:04:11;100642.88;;;19.44;72.24
40930;BME280;26659;47.962;21.652;2022-07-12T08:06:36;100639.25;;;19.67;70.54
40930;BME280;26659;47.962;21.652;2022-07-12T08:09:02;100639.19;;;19.79;69.24
40930;BME280;26659;47.962;21.652;2022-07-12T08:11:27;100638.03;;;19.92;68.52
40930;BME280;26659;47.962;21.652;2022-07-12T08:13:53;100645.03;;;19.88;68.00
40930;BME280;26659;47.962;21.652;2022-07-12T08:16:18;100652.09;;;19.32;68.58
40930;BME280;26659;47.962;21.652;2022-07-12T08:18:44;100652.28;;;19.54;66.65
40930;BME280;26659;47.962;21.652;2022-07-12T08:21:09;100648.66;;;19.77;68.24
40930;BME280;26659;47.962;21.652;2022-07-12T08:23:34;100652.44;;;19.47;68.23
40930;BME280;26659;47.962;21.652;2022-07-12T08:26:00;100650.94;;;19.68;67.64
40930;BME280;26659;47.962;21.652;2022-07-12T08:28:25;100649.31;;;19.84;67.57
40930;BME280;26659;47.962;21.652;2022-07-12T08:30:50;100652.38;;;20.04;65.71
40930;BME280;26659;47.962;21.652;2022-07-12T08:33:16;100651.47;;;19.99;66.04
40930;BME280;26659;47.962;21.652;2022-07-12T08:35:41;100652.78;;;19.79;62.92
40930;BME280;26659;47.962;21.652;2022-07-12T08:38:06;100656.09;;;19.41;63.60
40930;BME280;26659;47.962;21.652;2022-07-12T08:40:32;100651.38;;;19.77;63.93
40930;BME280;26659;47.962;21.652;2022-07-12T08:42:57;100647.28;;;19.91;63.10
40930;BME280;26659;47.962;21.652;2022-07-12T08:45:23;100655.75;;;19.37;62.42
40930;BME280;26659;47.962;21.652;2022-07-12T08:47:48;100645.75;;;19.66;64.01
40930;BME280;26659;47.962;21.652;2022-07-12T08:50:17;100650.41;;;20.00;64.98
40930;BME280;26659;47.962;21.652;2022-07-12T08:52:46;100644.38;;;20.31;64.32
40930;BME280;26659;47.962;21.652;2022-07-12T08:55:16;100640.56;;;20.66;63.14
40930;BME280;26659;47.962;21.652;2022-07-12T08:57:43;100635.72;;;21.12;62.83
40930;BME280;26659;47.962;21.652;2022-07-12T09:00:08;100636.03;;;20.94;60.60
40930;BME280;26659;47.962;21.652;2022-07-12T09:02:44;100629.78;;;21.15;62.59
40930;BME280;26659;47.962;21.652;2022-07-12T09:05:11;100634.19;;;20.55;60.24
40930;BME280;26659;47.962;21.652;2022-07-12T09:07:36;100634.00;;;21.77;57.89
40930;BME280;26659;47.962;21.652;2022-07-12T09:10:03;100637.63;;;22.57;56.63
40930;BME280;26659;47.962;21.652;2022-07-12T09:12:28;100630.63;;;22.76;55.22
40930;BME280;26659;47.962;21.652;2022-07-12T09:14:53;100634.38;;;22.60;54.17
40930;BME280;26659;47.962;21.652;2022-07-12T09:17:21;100632.53;;;22.71;53.58
40930;BME280;26659;47.962;21.652;2022-07-12T09:19:56;100629.72;;;22.18;57.30
40930;BME280;26659;47.962;21.652;2022-07-12T09:22:22;100637.44;;;20.96;54.10
40930;BME280;26659;47.962;21.652;2022-07-12T09:24:47;100633.81;;;21.12;58.29
40930;BME280;26659;47.962;21.652;2022-07-12T09:27:12;100642.25;;;21.60;57.22
40930;BME280;26659;47.962;21.652;2022-07-12T09:29:48;100635.53;;;22.00;54.71
40930;BME280;26659;47.962;21.652;2022-07-12T09:32:16;100648.72;;;21.81;54.97
40930;BME280;26659;47.962;21.652;2022-07-12T09:35:00;100652.75;;;22.05;54.61
40930;BME280;26659;47.962;21.652;2022-07-12T09:37:44;100645.81;;;22.62;54.50
40930;BME280;26659;47.962;21.652;2022-07-12T09:40:10;100653.41;;;23.81;49.95
40930;BME280;26659;47.962;21.652;2022-07-12T09:42:35;100645.06;;;22.72;50.06
40930;BME280;26659;47.962;21.652;2022-07-12T09:45:01;100641.03;;;21.73;53.35
40930;BME280;26659;47.962;21.652;2022-07-12T09:47:26;100637.94;;;21.64;54.04
40930;BME280;26659;47.962;21.652;2022-07-12T09:49:52;100634.47;;;22.01;54.41
40930;BME280;26659;47.962;21.652;2022-07-12T09:52:21;100636.41;;;21.02;55.71
40930;BME280;26659;47.962;21.652;2022-07-12T09:54:47;100641.47;;;21.15;54.17
40930;BME280;26659;47.962;21.652;2022-07-12T09:57:33;100637.00;;;21.80;56.62
40930;BME280;26659;47.962;21.652;2022-07-12T09:59:59;100638.69;;;23.03;51.81
40930;BME280;26659;47.962;21.652;2022-07-12T10:02:24;100631.41;;;22.72;48.95
40930;BME280;26659;47.962;21.652;2022-07-12T10:04:50;100630.47;;;22.14;52.43
40930;BME280;26659;47.962;21.652;2022-07-12T10:07:16;100632.06;;;21.01;55.78
40930;BME280;26659;47.962;21.652;2022-07-12T10:09:44;100628.78;;;20.99;54.52
40930;BME280;26659;47.962;21.652;2022-07-12T10:12:10;100632.88;;;20.80;55.05
40930;BME280;26659;47.962;21.652;2022-07-12T10:14:39;100617.41;;;21.29;55.09
40930;BME280;26659;47.962;21.652;2022-07-12T10:17:06;100619.66;;;21.59;52.25
40930;BME280;26659;47.962;21.652;2022-07-12T10:19:34;100619.97;;;21.36;54.29
40930;BME280;26659;47.962;21.652;2022-07-12T10:22:01;100616.94;;;21.10;55.00
40930;BME280;26659;47.962;21.652;2022-07-12T10:26:55;100615.81;;;20.84;53.76
40930;BME280;26659;47.962;21.652;2022-07-12T10:29:20;100597.00;;;21.05;54.83
40930;BME280;26659;47.962;21.652;2022-07-12T10:31:46;100602.59;;;21.42;61.13
40930;BME280;26659;47.962;21.652;2022-07-12T10:39:21;100595.94;;;22.19;58.71
40930;BME280;26659;47.962;21.652;2022-07-12T10:44:34;100601.44;;;22.29;51.96
40930;BME280;26659;47.962;21.652;2022-07-12T10:47:00;100599.19;;;23.26;50.07
40930;BME280;26659;47.962;21.652;2022-07-12T10:49:29;100591.94;;;22.90;50.12
40930;BME280;26659;47.962;21.652;2022-07-12T10:54:42;100600.56;;;23.29;52.85
40930;BME280;26659;47.962;21.652;2022-07-12T10:57:12;100596.19;;;23.38;51.07
40930;BME280;26659;47.962;21.652;2022-07-12T10:59:38;100597.09;;;24.10;49.48
40930;BME280;26659;47.962;21.652;2022-07-12T11:02:03;100597.56;;;24.53;50.14
40930;BME280;26659;47.962;21.652;2022-07-12T11:04:30;100593.47;;;23.33;51.63
40930;BME280;26659;47.962;21.652;2022-07-12T11:06:55;100585.63;;;22.74;51.10
40930;BME280;26659;47.962;21.652;2022-07-12T11:09:22;100589.72;;;22.29;53.51
40930;BME280;26659;47.962;21.652;2022-07-12T11:11:48;100589.09;;;21.84;53.58
40930;BME280;26659;47.962;21.652;2022-07-12T11:16:46;100591.09;;;23.72;51.52
40930;BME280;26659;47.962;21.652;2022-07-12T11:19:12;100586.47;;;23.68;49.66
40930;BME280;26659;47.962;21.652;2022-07-12T11:21:38;100569.44;;;24.27;48.71
40930;BME280;26659;47.962;21.652;2022-07-12T11:24:14;100577.63;;;23.25;48.45
40930;BME280;26659;47.962;21.652;2022-07-12T11:26:40;100576.59;;;23.97;48.13
40930;BME280;26659;47.962;21.652;2022-07-12T11:29:05;100574.41;;;23.89;46.92
40930;BME280;26659;47.962;21.652;2022-07-12T11:31:31;100576.31;;;23.99;50.00
40930;BME280;26659;47.962;21.652;2022-07-12T11:33:56;100572.69;;;23.17;46.58
40930;BME280;26659;47.962;21.652;2022-07-12T11:36:24;100572.66;;;23.06;49.70
40930;BME280;26659;47.962;21.652;2022-07-12T11:38:50;100572.69;;;23.22;49.35
40930;BME280;26659;47.962;21.652;2022-07-12T11:41:15;100574.66;;;22.69;46.15
40930;BME280;26659;47.962;21.652;2022-07-12T11:43:41;100565.81;;;23.09;49.84
40930;BME280;26659;47.962;21.652;2022-07-12T11:46:07;100566.41;;;23.16;49.85
40930;BME280;26659;47.962;21.652;2022-07-12T11:48:33;100559.34;;;23.56;50.74
40930;BME280;26659;47.962;21.652;2022-07-12T11:51:00;100562.06;;;23.20;48.70
40930;BME280;26659;47.962;21.652;2022-07-12T11:53:26;100566.97;;;23.18;49.52
40930;BME280;26659;47.962;21.652;2022-07-12T11:55:52;100559.72;;;22.87;48.52
40930;BME280;26659;47.962;21.652;2022-07-12T11:58:19;100559.19;;;22.85;47.44
40930;BME280;26659;47.962;21.652;2022-07-12T12:00:45;100558.19;;;22.43;47.15
40930;BME280;26659;47.962;21.652;2022-07-12T12:03:11;100554.78;;;22.16;48.53
40930;BME280;26659;47.962;21.652;2022-07-12T12:05:36;100551.69;;;22.54;49.21
40930;BME280;26659;47.962;21.652;2022-07-12T12:08:02;100552.44;;;22.97;48.18
40930;BME280;26659;47.962;21.652;2022-07-12T12:10:28;100548.41;;;23.30;50.77
40930;BME280;26659;47.962;21.652;2022-07-12T12:12:54;100548.44;;;23.46;48.49
40930;BME280;26659;47.962;21.652;2022-07-12T12:15:26;100554.41;;;23.27;46.93
40930;BME280;26659;47.962;21.652;2022-07-12T12:20:21;100554.75;;;22.68;49.36
40930;BME280;26659;47.962;21.652;2022-07-12T12:22:48;100547.38;;;22.64;49.46
40930;BME280;26659;47.962;21.652;2022-07-12T12:25:14;100551.25;;;22.78;47.78
40930;BME280;26659;47.962;21.652;2022-07-12T12:30:08;100544.66;;;22.64;49.18
40930;BME280;26659;47.962;21.652;2022-07-12T12:35:18;100542.16;;;22.09;47.57
40930;BME280;26659;47.962;21.652;2022-07-12T12:37:57;100549.16;;;22.38;49.56
40930;BME280;26659;47.962;21.652;2022-07-12T12:40:24;100553.28;;;22.45;50.25
40930;BME280;26659;47.962;21.652;2022-07-12T12:42:49;100551.38;;;22.46;49.11
40930;BME280;26659;47.962;21.652;2022-07-12T12:45:22;100557.66;;;22.46;48.97
40930;BME280;26659;47.962;21.652;2022-07-12T12:47:58;100564.13;;;22.30;50.81
40930;BME280;26659;47.962;21.652;2022-07-12T12:53:08;100563.91;;;20.91;70.92
40930;BME280;26659;47.962;21.652;2022-07-12T12:55:35;100567.16;;;21.10;77.39
40930;BME280;26659;47.962;21.652;2022-07-12T12:58:00;100561.44;;;22.03;74.97